createdAt,value
2022-11-11T00:01:29.734Z,7.27
2022-11-11T00:04:16.043Z,7.29
2022-11-11T00:07:02.945Z,7.30
2022-11-11T00:09:48.731Z,7.31
2022-11-11T00:12:34.834Z,7.31
2022-11-11T00:15:22.619Z,7.27
2022-11-11T00:18:33.331Z,7.23
2022-11-11T00:21:36.752Z,7.21
2022-11-11T00:24:45.116Z,7.21
2022-11-11T00:27:30.747Z,7.21
2022-11-11T00:30:16.888Z,7.24
2022-11-11T00:33:02.462Z,7.26
2022-11-11T00:35:57.406Z,7.29
2022-11-11T00:38:46.693Z,7.32
2022-11-11T00:41:32.474Z,7.35
2022-11-11T00:44:18.224Z,7.41
2022-11-11T00:47:21.594Z,7.45
2022-11-11T00:50:30.769Z,7.47
2022-11-11T00:53:23.412Z,7.48
2022-11-11T00:56:11.992Z,7.50
2022-11-11T00:58:57.745Z,7.53
2022-11-11T01:01:43.526Z,7.56
2022-11-11T01:04:29.667Z,7.61
2022-11-11T01:07:15.344Z,7.64
2022-11-11T01:10:01.134Z,7.67
2022-11-11T01:12:47.304Z,7.71
2022-11-11T01:15:35.793Z,7.75
2022-11-11T01:18:24.438Z,7.81
2022-11-11T01:21:13.028Z,7.84
2022-11-11T01:23:58.914Z,7.87
2022-11-11T01:26:45.293Z,7.90
2022-11-11T01:29:31.782Z,7.92
2022-11-11T01:32:17.468Z,7.96
2022-11-11T01:35:03.337Z,7.97
2022-11-11T01:37:49.493Z,8.00
2022-11-11T01:40:43.957Z,8.03
2022-11-11T01:43:30.364Z,8.04
2022-11-11T01:46:26.644Z,8.05
2022-11-11T01:49:29.741Z,8.06
2022-11-11T01:52:20.416Z,8.07
2022-11-11T01:55:09.569Z,8.09
2022-11-11T01:57:59.272Z,8.12
2022-11-11T02:00:46.130Z,8.15
2022-11-11T02:03:36.741Z,8.19
2022-11-11T02:06:23.023Z,8.19
2022-11-11T02:09:09.879Z,8.18
2022-11-11T02:12:15.492Z,8.18
2022-11-11T02:15:02.819Z,8.16
2022-11-11T02:17:50.753Z,8.17
2022-11-11T02:20:40.027Z,8.18
2022-11-11T02:23:30.025Z,8.16
2022-11-11T02:26:20.220Z,8.14
2022-11-11T02:29:10.413Z,8.11
2022-11-11T02:31:56.740Z,8.06
2022-11-11T02:34:42.214Z,8.03
2022-11-11T02:37:29.234Z,8.00
2022-11-11T02:40:18.111Z,7.98
2022-11-11T02:43:03.971Z,7.98
2022-11-11T02:45:50.108Z,7.97
2022-11-11T02:48:35.887Z,7.96
2022-11-11T02:51:21.857Z,7.94
2022-11-11T02:54:07.922Z,7.92
2022-11-11T02:57:09.504Z,7.91
2022-11-11T02:59:55.022Z,7.89
2022-11-11T03:02:40.940Z,7.86
2022-11-11T03:05:26.742Z,7.84
2022-11-11T03:08:12.723Z,7.84
2022-11-11T03:10:58.670Z,7.83
2022-11-11T03:13:44.580Z,7.82
2022-11-11T03:16:44.421Z,7.81
2022-11-11T03:19:30.706Z,7.81
2022-11-11T03:22:54.032Z,7.80
2022-11-11T03:25:41.546Z,7.79
2022-11-11T03:28:27.641Z,7.77
2022-11-11T03:31:13.189Z,7.77
2022-11-11T03:34:18.320Z,7.75
2022-11-11T03:37:22.092Z,7.73
2022-11-11T03:40:10.086Z,7.72
2022-11-11T03:42:59.685Z,7.71
2022-11-11T03:45:50.547Z,7.71
2022-11-11T03:48:36.900Z,7.73
2022-11-11T03:51:22.790Z,7.74
2022-11-11T03:54:08.650Z,7.73
2022-11-11T03:57:15.611Z,7.73
2022-11-11T04:00:01.338Z,7.73
2022-11-11T04:03:04.901Z,7.73
2022-11-11T04:06:07.995Z,7.73
2022-11-11T04:09:11.741Z,7.72
2022-11-11T04:11:57.224Z,7.71
2022-11-11T04:15:00.503Z,7.69
2022-11-11T04:17:46.575Z,7.69
2022-11-11T04:20:50.055Z,7.70
2022-11-11T04:23:35.615Z,7.71
2022-11-11T04:26:21.575Z,7.71
2022-11-11T04:29:24.846Z,7.73
2022-11-11T04:32:29.685Z,7.76
2022-11-11T04:35:16.738Z,7.77
2022-11-11T04:38:16.667Z,7.78
2022-11-11T04:41:05.021Z,7.79
2022-11-11T04:44:08.492Z,7.80
2022-11-11T04:46:53.993Z,7.80
2022-11-11T04:49:39.419Z,7.79
2022-11-11T04:52:28.733Z,7.79
2022-11-11T04:55:31.945Z,7.82
2022-11-11T04:58:18.849Z,7.83
2022-11-11T05:01:05.045Z,7.84
2022-11-11T05:03:50.828Z,7.83
2022-11-11T05:06:58.108Z,7.82
2022-11-11T05:09:45.138Z,7.84
2022-11-11T05:12:30.878Z,7.85
2022-11-11T05:15:34.588Z,7.85
2022-11-11T05:18:37.791Z,7.86
2022-11-11T05:21:28.292Z,7.85
2022-11-11T05:24:31.993Z,7.86
2022-11-11T05:27:17.876Z,7.87
2022-11-11T05:30:03.750Z,7.86
2022-11-11T05:32:49.997Z,7.87
2022-11-11T05:35:36.650Z,7.88
2022-11-11T05:38:22.386Z,7.90
2022-11-11T05:41:08.998Z,7.91
2022-11-11T05:43:54.676Z,7.94
2022-11-11T05:46:40.773Z,7.95
2022-11-11T05:49:26.711Z,7.95
2022-11-11T05:52:13.912Z,7.96
2022-11-11T05:54:59.823Z,7.99
2022-11-11T05:57:45.274Z,8.00
2022-11-11T06:00:30.908Z,8.02
2022-11-11T06:03:16.916Z,8.03
2022-11-11T06:06:02.825Z,8.04
2022-11-11T06:08:49.003Z,8.06
2022-11-11T06:11:35.387Z,8.08
2022-11-11T06:14:21.009Z,8.11
2022-11-11T06:17:06.990Z,8.13
2022-11-11T06:19:52.746Z,8.13
2022-11-11T06:23:01.482Z,8.14
2022-11-11T06:26:05.245Z,8.18
2022-11-11T06:28:53.014Z,8.19
2022-11-11T06:31:39.006Z,8.22
2022-11-11T06:34:25.042Z,8.24
2022-11-11T06:37:10.860Z,8.26
2022-11-11T06:39:56.799Z,8.28
2022-11-11T06:42:42.416Z,8.31
2022-11-11T06:45:30.299Z,8.37
2022-11-11T06:48:14.449Z,8.40
2022-11-11T06:51:06.069Z,8.43
2022-11-11T06:53:52.188Z,8.45
2022-11-11T06:56:37.626Z,8.51
2022-11-11T06:59:23.627Z,8.53
2022-11-11T07:02:14.072Z,8.54
2022-11-11T07:05:00.241Z,8.56
2022-11-11T07:07:46.222Z,8.58
2022-11-11T07:10:32.723Z,8.58
2022-11-11T07:13:19.440Z,8.59
2022-11-11T07:16:05.609Z,8.61
2022-11-11T07:18:51.237Z,8.62
2022-11-11T07:21:36.800Z,8.66
2022-11-11T07:24:22.429Z,8.68
2022-11-11T07:27:07.966Z,8.72
2022-11-11T07:29:54.253Z,8.74
2022-11-11T07:32:45.212Z,8.76
2022-11-11T07:35:30.802Z,8.78
2022-11-11T07:38:16.369Z,8.81
2022-11-11T07:41:01.972Z,8.85
2022-11-11T07:43:47.296Z,8.89
2022-11-11T07:46:33.228Z,8.93
2022-11-11T07:49:19.138Z,8.97
2022-11-11T07:52:05.279Z,9.01
2022-11-11T07:54:50.759Z,9.04
2022-11-11T07:57:36.818Z,9.10
2022-11-11T08:00:23.407Z,9.18
2022-11-11T08:03:09.485Z,9.22
2022-11-11T08:05:56.401Z,9.25
2022-11-11T08:08:42.026Z,9.31
2022-11-11T08:11:41.663Z,9.38
2022-11-11T08:14:27.976Z,9.48
2022-11-11T08:17:13.577Z,9.57
2022-11-11T08:19:59.169Z,9.71
2022-11-11T08:23:01.234Z,9.81
2022-11-11T08:25:51.270Z,9.86
2022-11-11T08:28:37.209Z,9.92
2022-11-11T08:31:23.093Z,10.00
2022-11-11T08:34:09.258Z,10.06
2022-11-11T08:36:55.158Z,10.11
2022-11-11T08:39:40.874Z,10.19
2022-11-11T08:42:27.841Z,10.25
2022-11-11T08:45:14.041Z,10.31
2022-11-11T08:47:59.600Z,10.36
2022-11-11T08:50:45.718Z,10.43
2022-11-11T08:53:32.636Z,10.46
2022-11-11T08:56:18.337Z,10.45
2022-11-11T08:59:04.086Z,10.44
2022-11-11T09:01:49.655Z,10.48
2022-11-11T09:04:44.983Z,10.52
2022-11-11T09:07:31.867Z,10.60
2022-11-11T09:10:17.945Z,10.68
2022-11-11T09:13:04.725Z,10.73
2022-11-11T09:15:50.466Z,10.78
2022-11-11T09:18:36.386Z,10.82
2022-11-11T09:21:24.212Z,10.83
2022-11-11T09:24:10.029Z,10.85
2022-11-11T09:26:56.230Z,10.87
2022-11-11T09:29:42.748Z,10.87
2022-11-11T09:32:28.433Z,10.87
2022-11-11T09:35:14.240Z,10.88
2022-11-11T09:38:01.945Z,10.90
2022-11-11T09:40:59.228Z,10.93
2022-11-11T09:43:53.785Z,10.96
2022-11-11T09:46:47.735Z,10.97
2022-11-11T09:49:46.634Z,10.97
2022-11-11T09:52:38.255Z,10.94
2022-11-11T09:55:28.683Z,10.92
2022-11-11T09:58:20.279Z,10.89
2022-11-11T10:01:12.270Z,10.88
2022-11-11T10:04:10.639Z,10.86
2022-11-11T10:07:02.085Z,10.84
2022-11-11T10:09:52.070Z,10.81
2022-11-11T10:12:44.290Z,10.78
2022-11-11T10:15:35.450Z,10.77
2022-11-11T10:18:42.021Z,10.76
2022-11-11T10:21:57.952Z,10.74
2022-11-11T10:24:47.207Z,10.72
2022-11-11T10:27:37.211Z,10.74
2022-11-11T10:30:31.163Z,10.71
2022-11-11T10:33:25.970Z,10.72
2022-11-11T10:36:19.613Z,10.74
2022-11-11T10:39:06.921Z,10.77
2022-11-11T10:41:53.566Z,10.79
2022-11-11T10:44:39.518Z,10.83
2022-11-11T10:47:40.947Z,10.86
2022-11-11T10:50:33.179Z,10.94
2022-11-11T10:53:27.032Z,11.00
2022-11-11T10:56:19.377Z,11.05
2022-11-11T10:59:13.020Z,11.11
2022-11-11T11:02:03.207Z,11.16
2022-11-11T11:04:54.680Z,11.18
2022-11-11T11:07:48.099Z,11.19
2022-11-11T11:10:40.829Z,11.22
2022-11-11T11:13:34.049Z,11.21
2022-11-11T11:16:24.092Z,11.20
2022-11-11T11:19:20.978Z,11.20
2022-11-11T11:22:06.726Z,11.20
2022-11-11T11:24:52.666Z,11.19
2022-11-11T11:27:38.840Z,11.19
2022-11-11T11:30:27.158Z,11.24
2022-11-11T11:33:13.112Z,11.25
2022-11-11T11:35:58.627Z,11.23
2022-11-11T11:38:46.811Z,11.21
2022-11-11T11:41:43.376Z,11.21
2022-11-11T11:44:30.995Z,11.20
2022-11-11T11:47:22.273Z,11.18
2022-11-11T11:50:31.239Z,11.17
2022-11-11T11:53:30.025Z,11.17
2022-11-11T11:56:26.673Z,11.19
2022-11-11T11:59:20.266Z,11.20
2022-11-11T12:02:24.148Z,11.22
2022-11-11T12:05:19.720Z,11.25
2022-11-11T12:08:26.423Z,11.30
2022-11-11T12:11:19.826Z,11.30
2022-11-11T12:14:27.436Z,11.29
2022-11-11T12:17:26.456Z,11.33
2022-11-11T12:20:22.041Z,11.40
2022-11-11T12:23:28.752Z,11.48
2022-11-11T12:26:20.992Z,11.54
2022-11-11T12:29:32.901Z,11.57
2022-11-11T12:32:33.794Z,11.61
2022-11-11T12:35:34.680Z,11.65
2022-11-11T12:38:44.323Z,11.67
2022-11-11T12:41:42.214Z,11.68
2022-11-11T12:44:32.430Z,11.66
2022-11-11T12:47:36.554Z,11.61
2022-11-11T12:50:26.298Z,11.57
2022-11-11T12:53:26.331Z,11.50
2022-11-11T12:56:24.687Z,11.45
2022-11-11T12:59:21.688Z,11.39
2022-11-11T13:02:22.165Z,11.31
2022-11-11T13:05:15.946Z,11.26
2022-11-11T13:08:20.832Z,11.21
2022-11-11T13:11:17.945Z,11.16
2022-11-11T13:14:22.047Z,11.12
2022-11-11T13:17:15.109Z,11.10
2022-11-11T13:20:05.189Z,11.08
2022-11-11T13:22:51.859Z,11.07
2022-11-11T13:25:49.468Z,11.05
2022-11-11T13:28:42.212Z,11.03
2022-11-11T13:31:35.519Z,11.05
2022-11-11T13:34:22.305Z,11.02
2022-11-11T13:37:10.548Z,11.00
2022-11-11T13:40:01.744Z,10.99
2022-11-11T13:42:53.723Z,11.00
2022-11-11T13:45:42.520Z,10.98
2022-11-11T13:48:32.457Z,10.97
2022-11-11T13:51:26.325Z,10.96
2022-11-11T13:54:25.973Z,10.92
2022-11-11T13:57:22.593Z,10.89
2022-11-11T14:00:25.191Z,10.86
2022-11-11T14:03:34.899Z,10.85
2022-11-11T14:06:57.859Z,10.83
2022-11-11T14:10:03.195Z,10.82
2022-11-11T14:12:50.472Z,10.82
2022-11-11T14:15:43.066Z,10.79
2022-11-11T14:18:41.085Z,10.75
2022-11-11T14:21:49.984Z,10.73
2022-11-11T14:24:43.216Z,10.70
2022-11-11T14:27:32.295Z,10.68
2022-11-11T14:30:34.758Z,10.62
2022-11-11T14:33:32.441Z,10.56
2022-11-11T14:36:25.385Z,10.52
2022-11-11T14:39:22.329Z,10.51
2022-11-11T14:42:28.896Z,10.50
2022-11-11T14:46:00.258Z,10.47
2022-11-11T14:49:11.291Z,10.44
2022-11-11T14:52:00.200Z,10.41
2022-11-11T14:55:16.616Z,10.38
2022-11-11T14:58:11.459Z,10.35
2022-11-11T15:01:04.737Z,10.38
2022-11-11T15:03:53.772Z,10.38
2022-11-11T15:06:45.928Z,10.35
2022-11-11T15:09:49.465Z,10.31
2022-11-11T15:12:46.758Z,10.25
2022-11-11T15:15:40.713Z,10.22
2022-11-11T15:18:53.317Z,10.18
2022-11-11T15:21:45.144Z,10.15
2022-11-11T15:24:41.838Z,10.11
2022-11-11T15:27:35.232Z,10.08
2022-11-11T15:30:22.942Z,10.05
2022-11-11T15:33:19.769Z,10.03
2022-11-11T15:36:15.533Z,10.02
2022-11-11T15:39:06.475Z,10.03
2022-11-11T15:41:54.410Z,10.03
2022-11-11T15:44:40.354Z,10.03
2022-11-11T15:47:30.427Z,10.04
2022-11-11T15:50:36.719Z,10.07
2022-11-11T15:53:29.523Z,10.10
2022-11-11T15:56:33.507Z,10.12
2022-11-11T15:59:23.942Z,10.12
2022-11-11T16:02:23.748Z,10.13
2022-11-11T16:05:27.315Z,10.13
2022-11-11T16:08:21.680Z,10.12
2022-11-11T16:11:08.004Z,10.11
2022-11-11T16:14:02.552Z,10.11
2022-11-11T16:16:52.122Z,10.10
2022-11-11T16:19:47.815Z,10.08
2022-11-11T16:22:40.841Z,10.09
2022-11-11T16:25:26.925Z,10.10
2022-11-11T16:28:14.743Z,10.10
2022-11-11T16:30:58.536Z,10.10
2022-11-11T16:33:43.963Z,10.08
2022-11-11T16:36:29.931Z,10.09
2022-11-11T16:39:27.340Z,10.10
2022-11-11T16:42:23.556Z,10.10
2022-11-11T16:45:23.471Z,10.09
2022-11-11T16:48:42.891Z,10.07
2022-11-11T16:51:43.217Z,10.04
2022-11-11T16:54:32.808Z,10.02
2022-11-11T16:57:22.703Z,9.99
2022-11-11T17:00:14.104Z,9.97
2022-11-11T17:03:15.869Z,9.98
2022-11-11T17:06:05.081Z,10.00
2022-11-11T17:08:52.137Z,10.03
2022-11-11T17:11:47.836Z,10.07
2022-11-11T17:14:35.444Z,10.11
2022-11-11T17:17:21.586Z,10.13
2022-11-11T17:20:10.568Z,10.15
2022-11-11T17:22:58.089Z,10.19
2022-11-11T17:25:41.867Z,10.19
2022-11-11T17:28:28.615Z,10.18
2022-11-11T17:31:16.340Z,10.19
2022-11-11T17:34:06.548Z,10.19
2022-11-11T17:36:52.643Z,10.20
2022-11-11T17:39:39.283Z,10.18
2022-11-11T17:42:25.343Z,10.18
2022-11-11T17:45:12.927Z,10.20
2022-11-11T17:47:57.645Z,10.22
2022-11-11T17:50:43.618Z,10.20
2022-11-11T17:53:29.660Z,10.18
2022-11-11T17:56:15.828Z,10.17
2022-11-11T17:59:02.013Z,10.14
2022-11-11T18:01:47.681Z,10.12
2022-11-11T18:04:33.542Z,10.11
2022-11-11T18:07:19.258Z,10.13
2022-11-11T18:10:05.777Z,10.16
2022-11-11T18:12:51.659Z,10.17
2022-11-11T18:15:37.928Z,10.18
2022-11-11T18:18:23.577Z,10.19
2022-11-11T18:21:10.077Z,10.19
2022-11-11T18:23:56.340Z,10.20
2022-11-11T18:26:41.939Z,10.21
2022-11-11T18:29:28.673Z,10.22
2022-11-11T18:32:14.250Z,10.20
2022-11-11T18:35:00.144Z,10.19
2022-11-11T18:37:46.824Z,10.17
2022-11-11T18:40:33.700Z,10.16
2022-11-11T18:43:19.729Z,10.16
2022-11-11T18:46:11.045Z,10.13
2022-11-11T18:48:58.215Z,10.11
2022-11-11T18:51:44.368Z,10.12
2022-11-11T18:54:30.767Z,10.10
2022-11-11T18:57:17.409Z,10.10
2022-11-11T19:00:03.668Z,10.08
2022-11-11T19:02:49.364Z,10.07
2022-11-11T19:05:35.311Z,10.07
2022-11-11T19:08:20.818Z,10.08
2022-11-11T19:11:08.764Z,10.09
2022-11-11T19:13:54.833Z,10.11
2022-11-11T19:16:42.019Z,10.10
2022-11-11T19:19:27.879Z,10.08
2022-11-11T19:22:13.616Z,10.03
2022-11-11T19:25:00.434Z,10.02
2022-11-11T19:27:46.155Z,10.02
2022-11-11T19:30:31.856Z,10.00
2022-11-11T19:33:17.335Z,9.98
2022-11-11T19:36:04.740Z,10.01
2022-11-11T19:38:49.734Z,10.02
2022-11-11T19:41:35.145Z,10.00
2022-11-11T19:44:20.749Z,10.02
2022-11-11T19:47:07.079Z,10.05
2022-11-11T19:49:52.789Z,10.09
2022-11-11T19:52:38.432Z,10.10
2022-11-11T19:55:24.270Z,10.09
2022-11-11T19:58:09.863Z,10.09
2022-11-11T20:00:56.100Z,10.10
2022-11-11T20:03:42.910Z,10.09
2022-11-11T20:06:31.267Z,10.06
2022-11-11T20:09:17.876Z,10.03
2022-11-11T20:12:03.800Z,10.01
2022-11-11T20:14:49.846Z,10.01
2022-11-11T20:17:35.981Z,10.00
2022-11-11T20:20:21.996Z,9.99
2022-11-11T20:23:11.068Z,10.00
2022-11-11T20:25:57.762Z,9.99
2022-11-11T20:28:43.994Z,9.99
2022-11-11T20:31:30.149Z,10.00
2022-11-11T20:34:16.229Z,10.00
2022-11-11T20:37:01.758Z,10.03
2022-11-11T20:39:47.582Z,10.04
2022-11-11T20:42:33.250Z,10.04
2022-11-11T20:45:19.476Z,10.05
2022-11-11T20:48:08.923Z,10.05
2022-11-11T20:51:01.582Z,10.03
2022-11-11T20:53:47.979Z,10.03
2022-11-11T20:56:33.682Z,10.04
2022-11-11T20:59:19.548Z,10.03
2022-11-11T21:02:05.313Z,10.00
2022-11-11T21:04:51.144Z,10.00
2022-11-11T21:07:36.601Z,10.00
2022-11-11T21:10:22.170Z,9.98
2022-11-11T21:13:08.095Z,9.96
2022-11-11T21:15:53.968Z,9.91
2022-11-11T21:18:39.970Z,9.87
2022-11-11T21:21:28.512Z,9.85
2022-11-11T21:24:14.579Z,9.85
2022-11-11T21:27:00.290Z,9.85
2022-11-11T21:29:45.905Z,9.85
2022-11-11T21:32:31.582Z,9.86
2022-11-11T21:35:17.649Z,9.87
2022-11-11T21:38:03.399Z,9.87
2022-11-11T21:40:48.918Z,9.89
2022-11-11T21:43:35.421Z,9.91
2022-11-11T21:46:22.984Z,9.90
2022-11-11T21:49:08.729Z,9.90
2022-11-11T21:51:54.329Z,9.91
2022-11-11T21:54:40.517Z,9.93
2022-11-11T21:57:26.448Z,9.94
2022-11-11T22:00:14.903Z,9.94
2022-11-11T22:03:00.760Z,9.92
2022-11-11T22:05:46.396Z,9.92
2022-11-11T22:08:32.429Z,9.90
2022-11-11T22:11:20.360Z,9.90
2022-11-11T22:14:07.357Z,9.92
2022-11-11T22:16:53.367Z,9.96
2022-11-11T22:19:39.666Z,9.96
2022-11-11T22:22:25.270Z,9.97
2022-11-11T22:25:11.775Z,9.95
2022-11-11T22:27:57.091Z,9.93
2022-11-11T22:30:42.796Z,9.96
2022-11-11T22:33:28.199Z,9.98
2022-11-11T22:36:16.514Z,9.97
2022-11-11T22:39:03.057Z,9.99
2022-11-11T22:41:48.691Z,9.98
2022-11-11T22:44:34.220Z,9.97
2022-11-11T22:47:20.100Z,9.96
2022-11-11T22:50:06.789Z,9.94
2022-11-11T22:52:52.679Z,9.91
2022-11-11T22:55:38.495Z,9.91
2022-11-11T22:58:24.042Z,9.91
2022-11-11T23:01:13.835Z,9.94
2022-11-11T23:04:01.627Z,9.94
2022-11-11T23:06:48.242Z,9.98
2022-11-11T23:09:36.695Z,9.98
2022-11-11T23:12:22.631Z,10.01
2022-11-11T23:15:10.065Z,10.02
2022-11-11T23:17:54.505Z,10.03
2022-11-11T23:20:40.195Z,10.01
2022-11-11T23:23:26.700Z,9.97
2022-11-11T23:26:14.776Z,9.96
2022-11-11T23:29:00.762Z,9.95
2022-11-11T23:31:46.733Z,9.96
2022-11-11T23:34:33.032Z,9.95
2022-11-11T23:37:18.928Z,9.93
2022-11-11T23:40:04.650Z,9.92
2022-11-11T23:42:50.995Z,9.93
2022-11-11T23:45:37.335Z,9.94
2022-11-11T23:48:25.336Z,9.94
2022-11-11T23:51:11.575Z,9.94
2022-11-11T23:53:58.035Z,9.94
2022-11-11T23:56:43.823Z,9.94
2022-11-11T23:59:30.129Z,9.94
